Time,TemperatureF,DewpointF,PressureIn,WindDirection,WindDirectionDegrees,WindSpeedMPH,WindSpeedGustMPH,Humidity,HourlyPrecipIn,Conditions,Clouds,dailyrainin,SoftwareType,DateUTC
2013-05-13 00:01:00,70.5,59.5,29.79,WSW,248,0.0,0.0,68,0.00,,---,0.00,VWS V14.01,2013-05-13 04:01:00,
2013-05-13 00:02:00,70.5,59.5,29.79,WSW,248,0.0,0.0,68,0.00,,---,0.00,VWS V14.01,2013-05-13 04:02:00,
2013-05-13 00:07:00,70.3,59.3,29.79,WSW,248,0.0,0.0,68,0.00,,---,0.00,VWS V14.01,2013-05-13 04:07:00,
2013-05-13 00:12:00,70.3,60.1,29.79,WSW,248,0.0,0.0,70,0.00,,---,0.00,VWS V14.01,2013-05-13 04:12:00,
2013-05-13 00:17:00,70.3,60.1,29.79,WNW,292,0.0,0.0,70,0.00,,---,0.00,VWS V14.01,2013-05-13 04:17:00,
2013-05-13 00:22:00,70.5,61.8,29.79,SW,225,2.7,2.7,74,0.00,,---,0.00,VWS V14.01,2013-05-13 04:22:00,
2013-05-13 00:27:00,70.9,61.8,29.79,West,270,2.7,2.7,73,0.00,,---,0.00,VWS V14.01,2013-05-13 04:27:00,
2013-05-13 00:32:00,71.2,62.2,29.79,SW,225,3.6,3.6,73,0.00,,---,0.00,VWS V14.01,2013-05-13 04:32:00,
2013-05-13 00:37:00,71.2,61.8,29.79,WSW,248,0.0,0.0,72,0.00,,---,0.00,VWS V14.01,2013-05-13 04:37:00,
2013-05-13 00:42:00,71.2,61.8,29.79,SW,225,2.5,2.5,72,0.00,,---,0.00,VWS V14.01,2013-05-13 04:42:00,
2013-05-13 00:47:00,71.1,62.0,29.79,WSW,248,2.5,2.5,73,0.00,,---,0.00,VWS V14.01,2013-05-13 04:47:00,
2013-05-13 00:52:00,71.2,62.5,29.79,WSW,248,0.0,2.5,74,0.00,,---,0.00,VWS V14.01,2013-05-13 04:52:00,
2013-05-13 00:57:00,71.4,63.1,29.79,WNW,292,3.4,3.4,75,0.00,,---,0.00,VWS V14.01,2013-05-13 04:57:00,
2013-05-13 01:02:00,71.6,62.9,29.79,West,270,3.8,4.3,74,0.00,,---,0.00,VWS V14.01,2013-05-13 05:02:00,
2013-05-13 01:07:00,71.4,62.7,29.79,WSW,248,2.5,2.5,74,0.00,,---,0.00,VWS V14.01,2013-05-13 05:07:00,
2013-05-13 01:12:00,71.4,62.7,29.79,NW,315,1.1,4.7,74,0.00,,---,0.00,VWS V14.01,2013-05-13 05:12:00,
2013-05-13 01:17:00,71.2,62.5,29.79,West,270,0.0,2.7,74,0.00,,---,0.00,VWS V14.01,2013-05-13 05:17:00,
2013-05-13 01:22:00,71.2,62.5,29.79,SW,225,0.0,0.0,74,0.00,,---,0.00,VWS V14.01,2013-05-13 05:22:00,
2013-05-13 01:27:00,70.9,61.8,29.79,SW,225,0.0,1.3,73,0.00,,---,0.00,VWS V14.01,2013-05-13 05:27:00,
2013-05-13 01:32:00,70.7,61.6,29.79,WSW,248,0.9,0.9,73,0.00,,---,0.00,VWS V14.01,2013-05-13 05:32:00,
2013-05-13 01:37:00,70.5,61.8,29.79,SW,225,3.6,3.6,74,0.00,,---,0.00,VWS V14.01,2013-05-13 05:37:00,
2013-05-13 01:42:00,70.5,62.6,29.76,SW,225,0.0,0.0,76,0.00,,---,0.00,VWS V14.01,2013-05-13 05:42:00,
2013-05-13 01:47:00,70.5,62.6,29.76,WSW,248,2.5,3.1,76,0.00,,---,0.00,VWS V14.01,2013-05-13 05:47:00,
2013-05-13 01:52:00,70.5,63.0,29.76,SW,225,0.0,0.9,77,0.00,,---,0.00,VWS V14.01,2013-05-13 05:52:00,
2013-05-13 01:57:00,70.7,63.9,29.76,WSW,248,0.0,1.6,79,0.00,,---,0.00,VWS V14.01,2013-05-13 05:57:00,
2013-05-13 02:02:00,70.7,63.5,29.76,WSW,248,1.3,3.1,78,0.00,,---,0.00,VWS V14.01,2013-05-13 06:02:00,
2013-05-13 02:07:00,70.5,63.3,29.76,WNW,292,0.0,0.0,78,0.00,,---,0.00,VWS V14.01,2013-05-13 06:07:00,
2013-05-13 02:12:00,70.5,63.0,29.76,NW,315,2.0,4.3,77,0.00,,---,0.00,VWS V14.01,2013-05-13 06:12:00,
2013-05-13 02:17:00,70.5,63.7,29.76,SW,225,1.3,1.3,79,0.00,,---,0.00,VWS V14.01,2013-05-13 06:17:00,
2013-05-13 02:22:00,70.3,63.5,29.76,SW,225,0.0,2.5,79,0.00,,---,0.00,VWS V14.01,2013-05-13 06:22:00,
2013-05-13 02:27:00,70.3,63.5,29.76,WNW,292,2.9,4.3,79,0.00,,---,0.00,VWS V14.01,2013-05-13 06:27:00,
2013-05-13 02:32:00,70.5,64.1,29.76,WSW,248,0.0,3.1,80,0.00,,---,0.00,VWS V14.01,2013-05-13 06:32:00,
2013-05-13 02:37:00,70.5,64.1,29.76,WNW,292,0.0,1.6,80,0.00,,---,0.00,VWS V14.01,2013-05-13 06:37:00,
2013-05-13 02:42:00,70.3,63.9,29.76,WSW,248,2.5,3.8,80,0.00,,---,0.00,VWS V14.01,2013-05-13 06:42:00,
2013-05-13 02:47:00,70.3,64.2,29.76,West,270,2.9,4.9,81,0.00,,---,0.00,VWS V14.01,2013-05-13 06:47:00,
2013-05-13 02:52:00,70.3,63.9,29.76,WSW,248,3.8,3.8,80,0.00,,---,0.00,VWS V14.01,2013-05-13 06:52:00,
2013-05-13 02:57:00,70.3,64.2,29.76,WSW,248,4.0,4.0,81,0.00,,---,0.00,VWS V14.01,2013-05-13 06:57:00,
2013-05-13 03:02:00,70.5,64.8,29.76,SW,225,2.9,2.9,82,0.00,,---,0.00,VWS V14.01,2013-05-13 07:02:00,
2013-05-13 03:07:00,70.5,64.8,29.76,WSW,248,6.0,6.0,82,0.00,,---,0.00,VWS V14.01,2013-05-13 07:07:00,
2013-05-13 03:12:00,70.5,64.4,29.76,WSW,248,4.0,4.0,81,0.00,,---,0.00,VWS V14.01,2013-05-13 07:12:00,
2013-05-13 03:17:00,70.5,64.8,29.76,West,270,2.7,4.3,82,0.00,,---,0.00,VWS V14.01,2013-05-13 07:17:00,
2013-05-13 03:22:00,70.5,64.4,29.76,SW,225,0.9,1.6,81,0.00,,---,0.00,VWS V14.01,2013-05-13 07:22:00,
2013-05-13 03:27:00,70.5,64.8,29.76,SW,225,1.6,3.6,82,0.00,,---,0.00,VWS V14.01,2013-05-13 07:27:00,
2013-05-13 03:32:00,70.3,64.6,29.76,WSW,248,3.4,3.4,82,0.00,,---,0.00,VWS V14.01,2013-05-13 07:32:00,
2013-05-13 03:37:00,70.3,64.6,29.76,WSW,248,2.7,2.7,82,0.00,,---,0.00,VWS V14.01,2013-05-13 07:37:00,
2013-05-13 03:42:00,70.2,64.1,29.76,WNW,292,3.8,3.8,81,0.00,,---,0.00,VWS V14.01,2013-05-13 07:42:00,
2013-05-13 03:47:00,70.2,64.4,29.76,WSW,248,0.0,0.0,82,0.00,,---,0.00,VWS V14.01,2013-05-13 07:47:00,
2013-05-13 03:52:00,70.2,64.4,29.76,WNW,292,5.6,5.6,82,0.00,,---,0.00,VWS V14.01,2013-05-13 07:52:00,
2013-05-13 03:57:00,70.2,64.8,29.76,NW,315,2.9,4.3,83,0.00,,---,0.00,VWS V14.01,2013-05-13 07:57:00,
2013-05-13 04:02:00,70.0,64.2,29.76,NNW,338,4.7,4.7,82,0.00,,---,0.00,VWS V14.01,2013-05-13 08:02:00,
2013-05-13 04:07:00,70.0,64.6,29.76,SW,225,2.5,4.9,83,0.00,,---,0.00,VWS V14.01,2013-05-13 08:07:00,
2013-05-13 04:13:00,70.0,64.9,29.76,WNW,292,2.2,4.3,84,0.00,,---,0.00,VWS V14.01,2013-05-13 08:13:00,
2013-05-13 04:18:00,69.8,64.4,29.76,SW,225,2.5,3.8,83,0.00,,---,0.00,VWS V14.01,2013-05-13 08:18:00,
2013-05-13 04:23:00,69.6,64.2,29.76,SW,225,0.0,1.3,83,0.00,,---,0.00,VWS V14.01,2013-05-13 08:23:00,
2013-05-13 04:28:00,69.6,64.6,29.79,WNW,292,3.1,3.1,84,0.00,,---,0.00,VWS V14.01,2013-05-13 08:28:00,
2013-05-13 04:33:00,69.6,64.6,29.79,WNW,292,2.0,2.7,84,0.00,,---,0.00,VWS V14.01,2013-05-13 08:33:00,
2013-05-13 04:38:00,69.4,64.7,29.79,West,270,2.2,2.2,85,0.00,,---,0.00,VWS V14.01,2013-05-13 08:38:00,
2013-05-13 04:43:00,69.3,64.6,29.76,WNW,292,2.7,2.7,85,0.00,,---,0.00,VWS V14.01,2013-05-13 08:43:00,
2013-05-13 04:48:00,69.3,64.2,29.76,SW,225,3.8,3.8,84,0.00,,---,0.00,VWS V14.01,2013-05-13 08:48:00,
2013-05-13 04:53:00,69.1,64.4,29.76,WSW,248,0.0,2.9,85,0.00,,---,0.00,VWS V14.01,2013-05-13 08:53:00,
2013-05-13 04:58:00,68.9,63.9,29.76,WNW,292,2.5,3.8,84,0.00,,---,0.00,VWS V14.01,2013-05-13 08:58:00,
2013-05-13 05:03:00,68.9,64.2,29.76,SW,225,1.6,3.6,85,0.00,,---,0.00,VWS V14.01,2013-05-13 09:03:00,
2013-05-13 05:08:00,68.9,64.2,29.76,WSW,248,4.0,5.6,85,0.00,,---,0.00,VWS V14.01,2013-05-13 09:08:00,
2013-05-13 05:13:00,68.9,64.2,29.76,WSW,248,0.9,2.9,85,0.00,,---,0.00,VWS V14.01,2013-05-13 09:13:00,
2013-05-13 05:18:00,68.7,64.0,29.76,WNW,292,6.3,7.6,85,0.00,,---,0.00,VWS V14.01,2013-05-13 09:18:00,
2013-05-13 05:23:00,68.7,64.0,29.76,SW,225,2.2,2.2,85,0.00,,---,0.00,VWS V14.01,2013-05-13 09:23:00,
2013-05-13 05:28:00,68.5,63.9,29.76,West,270,4.3,4.3,85,0.00,,---,0.00,VWS V14.01,2013-05-13 09:28:00,
2013-05-13 05:33:00,68.5,63.9,29.76,NW,315,0.0,0.0,85,0.00,,---,0.00,VWS V14.01,2013-05-13 09:33:00,
2013-05-13 05:38:00,68.5,63.9,29.76,WSW,248,2.5,2.5,85,0.00,,---,0.00,VWS V14.01,2013-05-13 09:38:00,
2013-05-13 05:43:00,68.4,63.7,29.76,NNW,338,0.0,0.0,85,0.00,,---,0.00,VWS V14.01,2013-05-13 09:43:00,
2013-05-13 05:48:00,68.4,63.7,29.76,NNW,338,2.5,2.5,85,0.00,,---,0.00,VWS V14.01,2013-05-13 09:48:00,
2013-05-13 05:53:00,68.4,63.3,29.76,WSW,248,1.3,1.3,84,0.00,,---,0.00,VWS V14.01,2013-05-13 09:53:00,
2013-05-13 05:58:00,68.4,63.3,29.76,WSW,248,2.0,2.0,84,0.00,,---,0.00,VWS V14.01,2013-05-13 09:58:00,
2013-05-13 06:03:00,68.4,63.3,29.76,NW,315,2.5,2.5,84,0.00,,---,0.00,VWS V14.01,2013-05-13 10:03:00,
2013-05-13 06:08:00,68.4,63.0,29.76,WSW,248,0.0,0.0,83,0.00,,---,0.00,VWS V14.01,2013-05-13 10:08:00,
2013-05-13 06:13:00,68.2,62.8,29.76,WSW,248,0.0,1.1,83,0.00,,---,0.00,VWS V14.01,2013-05-13 10:13:00,
2013-05-13 06:18:00,68.4,63.0,29.76,NW,315,1.6,1.6,83,0.00,,---,0.00,VWS V14.01,2013-05-13 10:18:00,
2013-05-13 06:23:00,68.4,62.7,29.76,WSW,248,2.0,2.0,82,0.00,,---,0.00,VWS V14.01,2013-05-13 10:23:00,
2013-05-13 06:28:00,68.4,62.7,29.76,SSW,202,0.0,1.1,82,0.00,,---,0.00,VWS V14.01,2013-05-13 10:28:00,
2013-05-13 06:33:00,68.2,62.5,29.76,West,270,1.3,1.6,82,0.00,,---,0.00,VWS V14.01,2013-05-13 10:33:00,
2013-05-13 06:38:00,68.2,62.5,29.76,NW,315,1.1,2.7,82,0.00,,---,0.00,VWS V14.01,2013-05-13 10:38:00,
2013-05-13 06:43:00,68.4,62.3,29.79,North,0,1.3,1.3,81,0.00,,---,0.00,VWS V14.01,2013-05-13 10:43:00,
2013-05-13 06:48:00,68.4,62.3,29.79,West,270,3.1,3.6,81,0.00,,---,0.00,VWS V14.01,2013-05-13 10:48:00,
2013-05-13 06:53:00,68.5,62.5,29.79,WNW,292,3.1,3.1,81,0.00,,---,0.00,VWS V14.01,2013-05-13 10:53:00,
2013-05-13 06:58:00,68.7,62.3,29.79,WSW,248,1.3,2.2,80,0.00,,---,0.00,VWS V14.01,2013-05-13 10:58:00,
2013-05-13 07:03:00,68.9,62.5,29.79,West,270,1.6,3.1,80,0.00,,---,0.00,VWS V14.01,2013-05-13 11:03:00,
2013-05-13 07:08:00,68.9,62.1,29.79,NW,315,2.5,2.5,79,0.00,,---,0.00,VWS V14.01,2013-05-13 11:08:00,
2013-05-13 07:13:00,69.1,61.9,29.79,WSW,248,4.3,4.9,78,0.00,,---,0.00,VWS V14.01,2013-05-13 11:13:00,
2013-05-13 07:18:00,69.3,61.8,29.79,NW,315,3.8,3.8,77,0.00,,---,0.00,VWS V14.01,2013-05-13 11:18:00,
2013-05-13 07:23:00,69.3,61.4,29.79,NW,315,2.2,3.6,76,0.00,,---,0.00,VWS V14.01,2013-05-13 11:23:00,
2013-05-13 07:28:00,69.4,61.2,29.79,NW,315,1.1,3.6,75,0.00,,---,0.00,VWS V14.01,2013-05-13 11:28:00,
2013-05-13 07:33:00,69.4,60.4,29.79,North,0,1.6,2.7,73,0.00,,---,0.00,VWS V14.01,2013-05-13 11:33:00,
2013-05-13 07:38:00,69.6,60.2,29.79,NW,315,3.6,3.8,72,0.00,,---,0.00,VWS V14.01,2013-05-13 11:38:00,
2013-05-13 07:43:00,69.8,60.0,29.79,WNW,292,2.7,2.7,71,0.00,,---,0.00,VWS V14.01,2013-05-13 11:43:00,
2013-05-13 07:48:00,70.0,59.3,29.79,WNW,292,3.4,5.4,69,0.00,,---,0.00,VWS V14.01,2013-05-13 11:48:00,
2013-05-13 07:53:00,70.0,59.3,29.79,WNW,292,0.9,1.1,69,0.00,,---,0.00,VWS V14.01,2013-05-13 11:53:00,
2013-05-13 07:58:00,70.0,58.5,29.82,NW,315,2.7,3.4,67,0.00,,---,0.00,VWS V14.01,2013-05-13 11:58:00,
2013-05-13 08:04:00,70.0,58.5,29.82,WSW,248,1.6,2.5,67,0.00,,---,0.00,VWS V14.01,2013-05-13 12:04:00,
2013-05-13 08:09:00,70.0,58.1,29.82,WNW,292,6.3,6.3,66,0.00,,---,0.00,VWS V14.01,2013-05-13 12:09:00,
2013-05-13 08:14:00,70.0,57.7,29.82,NW,315,2.9,4.3,65,0.00,,---,0.00,VWS V14.01,2013-05-13 12:14:00,
2013-05-13 08:19:00,70.0,57.3,29.82,SW,225,1.3,3.8,64,0.00,,---,0.00,VWS V14.01,2013-05-13 12:19:00,
2013-05-13 08:24:00,70.0,56.8,29.82,WNW,292,5.6,6.3,63,0.00,,---,0.00,VWS V14.01,2013-05-13 12:24:00,
2013-05-13 08:29:00,70.0,57.3,29.82,WNW,292,2.7,5.4,64,0.00,,---,0.00,VWS V14.01,2013-05-13 12:29:00,
2013-05-13 08:34:00,70.2,57.0,29.82,WNW,292,4.0,6.0,63,0.00,,---,0.00,VWS V14.01,2013-05-13 12:34:00,
2013-05-13 08:39:00,70.2,57.4,29.82,NW,315,5.8,5.8,64,0.00,,---,0.00,VWS V14.01,2013-05-13 12:39:00,
2013-05-13 08:44:00,70.2,57.4,29.85,WSW,248,2.0,4.7,64,0.00,,---,0.00,VWS V14.01,2013-05-13 12:44:00,
2013-05-13 08:49:00,70.2,57.4,29.85,WNW,292,2.9,4.7,64,0.00,,---,0.00,VWS V14.01,2013-05-13 12:49:00,
2013-05-13 08:54:00,70.2,57.0,29.85,WNW,292,6.3,7.4,63,0.00,,---,0.00,VWS V14.01,2013-05-13 12:54:00,
2013-05-13 08:59:00,70.2,57.0,29.85,NW,315,2.7,3.4,63,0.00,,---,0.00,VWS V14.01,2013-05-13 12:59:00,
2013-05-13 09:04:00,70.2,57.0,29.85,WNW,292,6.0,6.0,63,0.00,,---,0.00,VWS V14.01,2013-05-13 13:04:00,
2013-05-13 09:09:00,70.2,57.0,29.85,NW,315,2.7,6.5,63,0.00,,---,0.00,VWS V14.01,2013-05-13 13:09:00,
2013-05-13 09:14:00,70.2,57.0,29.85,WNW,292,5.8,6.0,63,0.00,,---,0.00,VWS V14.01,2013-05-13 13:14:00,
2013-05-13 09:19:00,70.2,56.5,29.85,NW,315,4.0,8.1,62,0.00,,---,0.00,VWS V14.01,2013-05-13 13:19:00,
2013-05-13 09:24:00,70.2,56.5,29.85,WNW,292,7.4,7.4,62,0.00,,---,0.00,VWS V14.01,2013-05-13 13:24:00,
2013-05-13 09:29:00,70.3,56.7,29.85,NW,315,3.4,6.0,62,0.00,,---,0.00,VWS V14.01,2013-05-13 13:29:00,
2013-05-13 09:34:00,70.5,56.9,29.85,West,270,2.2,2.2,62,0.00,,---,0.00,VWS V14.01,2013-05-13 13:34:00,
2013-05-13 09:39:00,70.9,57.2,29.85,NW,315,3.8,3.8,62,0.00,,---,0.00,VWS V14.01,2013-05-13 13:39:00,
2013-05-13 09:44:00,71.1,56.5,29.85,NW,315,6.0,6.0,60,0.00,,---,0.00,VWS V14.01,2013-05-13 13:44:00,
2013-05-13 09:49:00,71.1,56.0,29.85,NNW,338,4.9,4.9,59,0.00,,---,0.00,VWS V14.01,2013-05-13 13:49:00,
2013-05-13 09:54:00,71.2,56.2,29.85,North,0,4.9,5.8,59,0.00,,---,0.00,VWS V14.01,2013-05-13 13:54:00,
2013-05-13 09:59:00,71.4,56.4,29.85,NW,315,2.7,2.7,59,0.00,,---,0.00,VWS V14.01,2013-05-13 13:59:00,
2013-05-13 10:04:00,71.8,56.2,29.85,WNW,292,4.0,5.4,58,0.00,,---,0.00,VWS V14.01,2013-05-13 14:04:00,
2013-05-13 10:09:00,72.3,56.7,29.85,NNW,338,5.4,7.2,58,0.00,,---,0.00,VWS V14.01,2013-05-13 14:09:00,
2013-05-13 10:14:00,73.4,56.8,29.85,West,270,6.3,7.4,56,0.00,,---,0.00,VWS V14.01,2013-05-13 14:14:00,
2013-05-13 10:19:00,75.9,57.6,29.85,NW,315,2.7,2.7,53,0.00,,---,0.00,VWS V14.01,2013-05-13 14:19:00,
2013-05-13 10:24:00,78.4,57.1,29.85,NNW,338,5.4,10.3,48,0.00,,---,0.00,VWS V14.01,2013-05-13 14:24:00,
2013-05-13 10:29:00,79.5,58.7,29.88,NE,45,7.4,7.4,49,0.00,,---,0.00,VWS V14.01,2013-05-13 14:29:00,
2013-05-13 10:34:00,78.6,56.1,29.88,SW,225,7.6,7.6,46,0.00,,---,0.00,VWS V14.01,2013-05-13 14:34:00,
2013-05-13 10:39:00,79.5,56.3,29.88,NW,315,10.1,10.1,45,0.00,,---,0.00,VWS V14.01,2013-05-13 14:39:00,
2013-05-13 10:44:00,80.4,57.2,29.88,WNW,292,4.9,4.9,45,0.00,,---,0.00,VWS V14.01,2013-05-13 14:44:00,
2013-05-13 10:49:00,82.0,56.7,29.88,WNW,292,3.4,3.4,42,0.00,,---,0.00,VWS V14.01,2013-05-13 14:49:00,
2013-05-13 10:54:00,81.9,55.2,29.88,NW,315,6.5,6.9,40,0.00,,---,0.00,VWS V14.01,2013-05-13 14:54:00,
2013-05-13 10:59:00,81.3,55.4,29.88,NW,315,6.5,6.5,41,0.00,,---,0.00,VWS V14.01,2013-05-13 14:59:00,
2013-05-13 11:04:00,82.4,56.4,29.88,WNW,292,4.5,5.8,41,0.00,,---,0.00,VWS V14.01,2013-05-13 15:04:00,
2013-05-13 11:09:00,81.9,55.2,29.88,West,270,3.8,6.7,40,0.00,,---,0.00,VWS V14.01,2013-05-13 15:09:00,
2013-05-13 11:14:00,79.7,52.6,29.88,NW,315,5.6,9.8,39,0.00,,---,0.00,VWS V14.01,2013-05-13 15:14:00,
2013-05-13 11:19:00,79.3,53.6,29.88,North,0,2.5,4.9,41,0.00,,---,0.00,VWS V14.01,2013-05-13 15:19:00,
2013-05-13 11:24:00,80.1,53.6,29.88,WSW,248,7.4,8.1,40,0.00,,---,0.00,VWS V14.01,2013-05-13 15:24:00,
2013-05-13 11:29:00,79.5,53.1,29.88,NW,315,6.3,8.1,40,0.00,,---,0.00,VWS V14.01,2013-05-13 15:29:00,
2013-05-13 11:34:00,79.9,52.7,29.88,NW,315,13.2,13.2,39,0.00,,---,0.00,VWS V14.01,2013-05-13 15:34:00,
2013-05-13 11:39:00,79.9,54.1,29.88,NNW,338,4.3,8.1,41,0.00,,---,0.00,VWS V14.01,2013-05-13 15:39:00,
2013-05-13 11:44:00,80.6,54.1,29.88,NNW,338,8.5,8.5,40,0.00,,---,0.00,VWS V14.01,2013-05-13 15:44:00,
2013-05-13 11:49:00,80.4,53.9,29.88,WSW,248,3.8,3.8,40,0.00,,---,0.00,VWS V14.01,2013-05-13 15:49:00,
2013-05-13 11:54:00,80.8,53.5,29.88,SE,135,2.2,4.3,39,0.00,,---,0.00,VWS V14.01,2013-05-13 15:54:00,
2013-05-13 11:59:00,81.3,54.7,29.88,NW,315,3.1,5.6,40,0.00,,---,0.00,VWS V14.01,2013-05-13 15:59:00,
2013-05-13 12:04:00,81.9,54.5,29.88,NW,315,2.9,2.9,39,0.00,,---,0.00,VWS V14.01,2013-05-13 16:04:00,
2013-05-13 12:09:00,82.4,55.0,29.88,NNW,338,4.3,7.6,39,0.00,,---,0.00,VWS V14.01,2013-05-13 16:09:00,
2013-05-13 12:14:00,81.9,53.8,29.91,WSW,248,6.5,6.5,38,0.00,,---,0.00,VWS V14.01,2013-05-13 16:14:00,
2013-05-13 12:20:00,83.1,54.9,29.91,NW,315,3.8,4.3,38,0.00,,---,0.00,VWS V14.01,2013-05-13 16:20:00,
2013-05-13 12:25:00,83.1,53.4,29.91,SW,225,4.0,4.0,36,0.00,,---,0.00,VWS V14.01,2013-05-13 16:25:00,
2013-05-13 12:30:00,82.9,52.5,29.88,WSW,248,2.5,3.6,35,0.00,,---,0.00,VWS V14.01,2013-05-13 16:30:00,
2013-05-13 12:35:00,82.9,51.7,29.88,WNW,292,8.1,8.1,34,0.00,,---,0.00,VWS V14.01,2013-05-13 16:35:00,
2013-05-13 12:40:00,82.4,49.6,29.88,WNW,292,4.0,7.8,32,0.00,,---,0.00,VWS V14.01,2013-05-13 16:40:00,
2013-05-13 12:45:00,83.5,50.5,29.88,NNW,338,2.5,7.4,32,0.00,,---,0.00,VWS V14.01,2013-05-13 16:45:00,
2013-05-13 12:50:00,84.6,50.6,29.88,NW,315,2.9,2.9,31,0.00,,---,0.00,VWS V14.01,2013-05-13 16:50:00,
2013-05-13 12:55:00,85.6,52.4,29.88,NNW,338,2.5,2.9,32,0.00,,---,0.00,VWS V14.01,2013-05-13 16:55:00,
2013-05-13 13:00:00,85.6,51.6,29.88,NW,315,6.0,6.0,31,0.00,,---,0.00,VWS V14.01,2013-05-13 17:00:00,
2013-05-13 13:05:00,86.2,52.0,29.88,NE,45,3.4,3.4,31,0.00,,---,0.00,VWS V14.01,2013-05-13 17:05:00,
2013-05-13 13:10:00,85.8,51.7,29.88,NNE,22,3.4,3.4,31,0.00,,---,0.00,VWS V14.01,2013-05-13 17:10:00,
2013-05-13 13:15:00,85.6,51.6,29.88,NW,315,2.0,2.0,31,0.00,,---,0.00,VWS V14.01,2013-05-13 17:15:00,
2013-05-13 13:20:00,85.8,51.7,29.88,WNW,292,4.0,4.0,31,0.00,,---,0.00,VWS V14.01,2013-05-13 17:20:00,
2013-05-13 13:25:00,85.3,51.2,29.88,WNW,292,4.0,5.4,31,0.00,,---,0.00,VWS V14.01,2013-05-13 17:25:00,
2013-05-13 13:30:00,85.3,51.2,29.88,WNW,292,2.5,2.5,31,0.00,,---,0.00,VWS V14.01,2013-05-13 17:30:00,
2013-05-13 13:35:00,85.5,50.5,29.88,SW,225,4.3,6.5,30,0.00,,---,0.00,VWS V14.01,2013-05-13 17:35:00,
2013-05-13 13:40:00,85.6,50.7,29.88,WNW,292,6.9,6.9,30,0.00,,---,0.00,VWS V14.01,2013-05-13 17:40:00,
2013-05-13 13:45:00,85.5,50.5,29.88,WSW,248,8.1,9.6,30,0.00,,---,0.00,VWS V14.01,2013-05-13 17:45:00,
2013-05-13 13:50:00,85.8,49.9,29.88,West,270,3.6,4.3,29,0.00,,---,0.00,VWS V14.01,2013-05-13 17:50:00,
2013-05-13 13:55:00,85.6,49.8,29.88,WNW,292,5.4,5.4,29,0.00,,---,0.00,VWS V14.01,2013-05-13 17:55:00,
2013-05-13 14:00:00,85.3,49.5,29.88,WSW,248,5.6,7.8,29,0.00,,---,0.00,VWS V14.01,2013-05-13 18:00:00,
2013-05-13 14:05:00,85.3,49.5,29.88,NNE,22,2.7,3.8,29,0.00,,---,0.00,VWS V14.01,2013-05-13 18:05:00,
2013-05-13 14:10:00,85.5,49.6,29.88,NNW,338,8.5,8.5,29,0.00,,---,0.00,VWS V14.01,2013-05-13 18:10:00,
2013-05-13 14:15:00,85.5,49.6,29.88,West,270,4.9,4.9,29,0.00,,---,0.00,VWS V14.01,2013-05-13 18:15:00,
2013-05-13 14:20:00,86.5,50.5,29.88,WSW,248,6.5,6.5,29,0.00,,---,0.00,VWS V14.01,2013-05-13 18:20:00,
2013-05-13 14:25:00,86.0,49.1,29.88,WNW,292,0.9,0.9,28,0.00,,---,0.00,VWS V14.01,2013-05-13 18:25:00,
2013-05-13 14:30:00,86.0,49.1,29.88,WSW,248,7.2,7.4,28,0.00,,---,0.00,VWS V14.01,2013-05-13 18:30:00,
2013-05-13 14:35:00,87.1,51.0,29.88,WNW,292,2.9,4.0,29,0.00,,---,0.00,VWS V14.01,2013-05-13 18:35:00,
2013-05-13 14:40:00,88.0,50.8,29.88,SW,225,4.9,4.9,28,0.00,,---,0.00,VWS V14.01,2013-05-13 18:40:00,
2013-05-13 14:45:00,88.2,51.9,29.88,SW,225,3.4,5.6,29,0.00,,---,0.00,VWS V14.01,2013-05-13 18:45:00,
2013-05-13 14:50:00,88.9,52.5,29.88,NW,315,3.4,3.4,29,0.00,,---,0.00,VWS V14.01,2013-05-13 18:50:00,
2013-05-13 14:55:00,88.3,51.1,29.88,West,270,10.5,10.5,28,0.00,,---,0.00,VWS V14.01,2013-05-13 18:55:00,
2013-05-13 15:00:00,87.6,50.5,29.88,NW,315,5.8,8.5,28,0.00,,---,0.00,VWS V14.01,2013-05-13 19:00:00,
2013-05-13 15:05:00,88.0,50.8,29.88,West,270,2.5,6.3,28,0.00,,---,0.00,VWS V14.01,2013-05-13 19:05:00,
2013-05-13 15:10:00,87.6,50.5,29.85,NNW,338,5.8,7.8,28,0.00,,---,0.00,VWS V14.01,2013-05-13 19:10:00,
2013-05-13 15:15:00,87.1,49.1,29.85,WNW,292,7.2,7.2,27,0.00,,---,0.00,VWS V14.01,2013-05-13 19:15:00,
2013-05-13 15:20:00,88.2,51.0,29.85,SW,225,3.8,3.8,28,0.00,,---,0.00,VWS V14.01,2013-05-13 19:20:00,
2013-05-13 15:25:00,88.0,50.8,29.85,WNW,292,8.7,8.7,28,0.00,,---,0.00,VWS V14.01,2013-05-13 19:25:00,
2013-05-13 15:30:00,88.2,51.0,29.85,WSW,248,6.5,8.7,28,0.00,,---,0.00,VWS V14.01,2013-05-13 19:30:00,
2013-05-13 15:36:00,88.3,51.1,29.85,WSW,248,5.6,6.3,28,0.00,,---,0.00,VWS V14.01,2013-05-13 19:36:00,
2013-05-13 15:41:00,88.3,51.1,29.85,SSW,202,3.4,3.8,28,0.00,,---,0.00,VWS V14.01,2013-05-13 19:41:00,
2013-05-13 15:46:00,88.2,50.0,29.85,SW,225,6.0,9.2,27,0.00,,---,0.00,VWS V14.01,2013-05-13 19:46:00,
2013-05-13 15:51:00,88.5,50.3,29.85,SW,225,6.0,9.8,27,0.00,,---,0.00,VWS V14.01,2013-05-13 19:51:00,
2013-05-13 15:56:00,88.9,50.6,29.85,WNW,292,7.4,7.8,27,0.00,,---,0.00,VWS V14.01,2013-05-13 19:56:00,
2013-05-13 16:01:00,88.5,48.2,29.85,West,270,5.6,7.2,25,0.00,,---,0.00,VWS V14.01,2013-05-13 20:01:00,
2013-05-13 16:06:00,88.2,47.9,29.85,WSW,248,4.7,7.2,25,0.00,,---,0.00,VWS V14.01,2013-05-13 20:06:00,
2013-05-13 16:11:00,88.0,47.8,29.82,WSW,248,7.6,7.6,25,0.00,,---,0.00,VWS V14.01,2013-05-13 20:11:00,
2013-05-13 16:16:00,88.7,49.5,29.82,NW,315,6.3,6.3,26,0.00,,---,0.00,VWS V14.01,2013-05-13 20:16:00,
2013-05-13 16:21:00,88.3,48.1,29.82,WSW,248,4.0,4.0,25,0.00,,---,0.00,VWS V14.01,2013-05-13 20:21:00,
2013-05-13 16:26:00,88.5,47.2,29.82,WSW,248,3.4,4.0,24,0.00,,---,0.00,VWS V14.01,2013-05-13 20:26:00,
2013-05-13 16:31:00,89.4,49.0,29.82,NNW,338,2.9,2.9,25,0.00,,---,0.00,VWS V14.01,2013-05-13 20:31:00,
2013-05-13 16:36:00,89.4,49.0,29.82,WSW,248,2.0,3.6,25,0.00,,---,0.00,VWS V14.01,2013-05-13 20:36:00,
2013-05-13 16:41:00,88.0,46.7,29.82,NW,315,4.7,5.6,24,0.00,,---,0.00,VWS V14.01,2013-05-13 20:41:00,
2013-05-13 16:46:00,87.4,46.2,29.82,SW,225,4.7,4.7,24,0.00,,---,0.00,VWS V14.01,2013-05-13 20:46:00,
2013-05-13 16:51:00,87.1,47.0,29.82,SW,225,4.7,4.7,25,0.00,,---,0.00,VWS V14.01,2013-05-13 20:51:00,
2013-05-13 16:56:00,86.9,46.9,29.82,WSW,248,4.0,4.0,25,0.00,,---,0.00,VWS V14.01,2013-05-13 20:56:00,
2013-05-13 17:01:00,85.8,46.0,29.82,SW,225,3.1,5.6,25,0.00,,---,0.00,VWS V14.01,2013-05-13 21:01:00,
2013-05-13 17:06:00,86.5,47.6,29.82,SW,225,3.6,3.6,26,0.00,,---,0.00,VWS V14.01,2013-05-13 21:06:00,
2013-05-13 17:11:00,86.7,47.8,29.82,WNW,292,3.8,4.3,26,0.00,,---,0.00,VWS V14.01,2013-05-13 21:11:00,
2013-05-13 17:16:00,85.6,45.8,29.82,WSW,248,4.7,8.7,25,0.00,,---,0.00,VWS V14.01,2013-05-13 21:16:00,
2013-05-13 17:21:00,84.2,45.6,29.82,SW,225,4.0,4.0,26,0.00,,---,0.00,VWS V14.01,2013-05-13 21:21:00,
2013-05-13 17:26:00,85.1,47.4,29.82,West,270,1.6,3.6,27,0.00,,---,0.00,VWS V14.01,2013-05-13 21:26:00,
2013-05-13 17:31:00,84.7,46.1,29.82,WSW,248,4.7,6.0,26,0.00,,---,0.00,VWS V14.01,2013-05-13 21:31:00,
2013-05-13 17:36:00,85.3,46.5,29.82,WSW,248,4.9,6.3,26,0.00,,---,0.00,VWS V14.01,2013-05-13 21:36:00,
2013-05-13 17:41:00,84.9,47.2,29.82,WSW,248,5.6,5.6,27,0.00,,---,0.00,VWS V14.01,2013-05-13 21:41:00,
2013-05-13 17:46:00,84.4,46.8,29.82,SW,225,4.3,4.3,27,0.00,,---,0.00,VWS V14.01,2013-05-13 21:46:00,
2013-05-13 17:51:00,82.9,46.5,29.82,West,270,4.3,4.3,28,0.00,,---,0.00,VWS V14.01,2013-05-13 21:51:00,
2013-05-13 17:56:00,83.7,47.1,29.82,WNW,292,5.4,5.4,28,0.00,,---,0.00,VWS V14.01,2013-05-13 21:56:00,
2013-05-13 18:01:00,83.5,47.0,29.82,West,270,5.4,5.4,28,0.00,,---,0.00,VWS V14.01,2013-05-13 22:01:00,
2013-05-13 18:06:00,84.0,47.4,29.82,SW,225,3.6,5.4,28,0.00,,---,0.00,VWS V14.01,2013-05-13 22:06:00,
2013-05-13 18:11:00,84.4,46.8,29.82,WNW,292,7.2,7.4,27,0.00,,---,0.00,VWS V14.01,2013-05-13 22:11:00,
2013-05-13 18:16:00,84.6,46.9,29.82,SW,225,3.8,3.8,27,0.00,,---,0.00,VWS V14.01,2013-05-13 22:16:00,
2013-05-13 18:21:00,84.2,46.6,29.82,West,270,5.6,5.6,27,0.00,,---,0.00,VWS V14.01,2013-05-13 22:21:00,
2013-05-13 18:26:00,83.1,45.7,29.82,NW,315,6.5,8.7,27,0.00,,---,0.00,VWS V14.01,2013-05-13 22:26:00,
2013-05-13 18:31:00,82.4,45.1,29.82,SW,225,1.6,4.0,27,0.00,,---,0.00,VWS V14.01,2013-05-13 22:31:00,
2013-05-13 18:36:00,82.2,46.8,29.82,WSW,248,2.9,3.6,29,0.00,,---,0.00,VWS V14.01,2013-05-13 22:36:00,
2013-05-13 18:41:00,81.3,46.1,29.82,NW,315,5.4,5.4,29,0.00,,---,0.00,VWS V14.01,2013-05-13 22:41:00,
2013-05-13 18:46:00,80.6,45.4,29.82,NW,315,2.0,2.0,29,0.00,,---,0.00,VWS V14.01,2013-05-13 22:46:00,
2013-05-13 18:51:00,80.6,45.4,29.82,WSW,248,1.6,2.7,29,0.00,,---,0.00,VWS V14.01,2013-05-13 22:51:00,
2013-05-13 18:56:00,80.6,45.4,29.82,WNW,292,5.4,5.8,29,0.00,,---,0.00,VWS V14.01,2013-05-13 22:56:00,
2013-05-13 19:01:00,80.6,45.4,29.82,WSW,248,6.5,6.5,29,0.00,,---,0.00,VWS V14.01,2013-05-13 23:01:00,
2013-05-13 19:06:00,80.2,46.0,29.82,SW,225,5.6,5.6,30,0.00,,---,0.00,VWS V14.01,2013-05-13 23:06:00,
2013-05-13 19:11:00,79.9,43.9,29.82,NW,315,3.6,4.3,28,0.00,,---,0.00,VWS V14.01,2013-05-13 23:11:00,
2013-05-13 19:16:00,79.5,44.5,29.82,NW,315,1.6,4.0,29,0.00,,---,0.00,VWS V14.01,2013-05-13 23:16:00,
2013-05-13 19:21:00,79.2,43.3,29.82,NNW,338,5.4,5.4,28,0.00,,---,0.00,VWS V14.01,2013-05-13 23:21:00,
2013-05-13 19:26:00,78.4,41.7,29.85,NW,315,2.7,6.9,27,0.00,,---,0.00,VWS V14.01,2013-05-13 23:26:00,
2013-05-13 19:32:00,78.1,42.4,29.85,NW,315,5.6,5.6,28,0.00,,---,0.00,VWS V14.01,2013-05-13 23:32:00,
2013-05-13 19:37:00,77.0,42.3,29.85,NW,315,3.8,6.0,29,0.00,,---,0.00,VWS V14.01,2013-05-13 23:37:00,
2013-05-13 19:42:00,76.5,42.8,29.85,NW,315,5.6,7.6,30,0.00,,---,0.00,VWS V14.01,2013-05-13 23:42:00,
2013-05-13 19:47:00,75.9,42.3,29.85,NNW,338,6.0,8.7,30,0.00,,---,0.00,VWS V14.01,2013-05-13 23:47:00,
2013-05-13 19:52:00,75.6,42.0,29.85,West,270,4.3,6.3,30,0.00,,---,0.00,VWS V14.01,2013-05-13 23:52:00,
2013-05-13 19:57:00,75.4,41.0,29.85,WNW,292,2.5,5.4,29,0.00,,---,0.00,VWS V14.01,2013-05-13 23:57:00,
2013-05-13 20:02:00,74.8,43.0,29.85,NW,315,2.7,7.4,32,0.00,,---,0.00,VWS V14.01,2013-05-14 00:02:00,
2013-05-13 20:07:00,74.3,47.8,29.85,NNW,338,2.9,3.6,39,0.00,,---,0.00,VWS V14.01,2013-05-14 00:07:00,
2013-05-13 20:12:00,73.6,49.1,29.88,East,90,2.2,2.2,42,0.00,,---,0.00,VWS V14.01,2013-05-14 00:12:00,
2013-05-13 20:17:00,72.9,48.5,29.88,SE,135,2.5,5.4,42,0.00,,---,0.00,VWS V14.01,2013-05-14 00:17:00,
2013-05-13 20:22:00,72.7,48.3,29.88,ENE,68,2.5,4.3,42,0.00,,---,0.00,VWS V14.01,2013-05-14 00:22:00,
2013-05-13 20:27:00,72.1,48.4,29.88,NNE,22,1.1,3.1,43,0.00,,---,0.00,VWS V14.01,2013-05-14 00:27:00,
2013-05-13 20:32:00,71.4,47.8,29.88,North,0,1.6,3.1,43,0.00,,---,0.00,VWS V14.01,2013-05-14 00:32:00,
2013-05-13 20:37:00,70.7,47.7,29.88,NE,45,4.0,4.0,44,0.00,,---,0.00,VWS V14.01,2013-05-14 00:37:00,
2013-05-13 20:42:00,70.5,47.6,29.88,NE,45,2.5,7.6,44,0.00,,---,0.00,VWS V14.01,2013-05-14 00:42:00,
2013-05-13 20:47:00,70.2,46.6,29.88,ENE,68,2.0,2.0,43,0.00,,---,0.00,VWS V14.01,2013-05-14 00:47:00,
2013-05-13 20:52:00,70.0,46.5,29.88,SE,135,2.5,4.0,43,0.00,,---,0.00,VWS V14.01,2013-05-14 00:52:00,
2013-05-13 20:57:00,69.8,47.5,29.88,NNE,22,2.7,2.7,45,0.00,,---,0.00,VWS V14.01,2013-05-14 00:57:00,
2013-05-13 21:02:00,69.4,47.2,29.88,NNE,22,2.9,2.9,45,0.00,,---,0.00,VWS V14.01,2013-05-14 01:02:00,
2013-05-13 21:07:00,69.1,46.9,29.88,NE,45,2.2,2.2,45,0.00,,---,0.00,VWS V14.01,2013-05-14 01:07:00,
2013-05-13 21:12:00,68.9,46.7,29.88,East,90,0.0,0.0,45,0.00,,---,0.00,VWS V14.01,2013-05-14 01:12:00,
2013-05-13 21:17:00,68.7,47.1,29.88,East,90,1.6,1.6,46,0.00,,---,0.00,VWS V14.01,2013-05-14 01:17:00,
2013-05-13 21:22:00,68.4,46.8,29.88,East,90,0.9,1.6,46,0.00,,---,0.00,VWS V14.01,2013-05-14 01:22:00,
2013-05-13 21:27:00,68.0,46.5,29.88,ESE,112,0.9,1.6,46,0.00,,---,0.00,VWS V14.01,2013-05-14 01:27:00,
2013-05-13 21:32:00,67.6,46.7,29.88,East,90,1.6,1.6,47,0.00,,---,0.00,VWS V14.01,2013-05-14 01:32:00,
2013-05-13 21:37:00,67.5,46.5,29.88,ENE,68,1.6,2.2,47,0.00,,---,0.00,VWS V14.01,2013-05-14 01:37:00,
2013-05-13 21:42:00,67.1,46.8,29.91,ENE,68,0.0,0.0,48,0.00,,---,0.00,VWS V14.01,2013-05-14 01:42:00,
2013-05-13 21:47:00,66.7,46.5,29.91,ENE,68,0.0,0.0,48,0.00,,---,0.00,VWS V14.01,2013-05-14 01:47:00,
2013-05-13 21:52:00,66.6,46.8,29.91,ENE,68,0.0,0.0,49,0.00,,---,0.00,VWS V14.01,2013-05-14 01:52:00,
2013-05-13 21:57:00,66.2,47.0,29.88,ENE,68,0.0,0.0,50,0.00,,---,0.00,VWS V14.01,2013-05-14 01:57:00,
2013-05-13 22:02:00,66.2,47.0,29.88,ENE,68,0.0,0.0,50,0.00,,---,0.00,VWS V14.01,2013-05-14 02:02:00,
2013-05-13 22:07:00,66.0,47.4,29.88,SE,135,0.0,0.0,51,0.00,,---,0.00,VWS V14.01,2013-05-14 02:07:00,
2013-05-13 22:12:00,65.8,47.2,29.91,NNE,22,0.0,1.1,51,0.00,,---,0.00,VWS V14.01,2013-05-14 02:12:00,
2013-05-13 22:17:00,65.8,47.2,29.91,NNE,22,0.0,0.0,51,0.00,,---,0.00,VWS V14.01,2013-05-14 02:17:00,
2013-05-13 22:22:00,65.3,47.2,29.91,NNE,22,0.0,0.0,52,0.00,,---,0.00,VWS V14.01,2013-05-14 02:22:00,
2013-05-13 22:27:00,65.1,47.6,29.91,NE,45,0.0,0.0,53,0.00,,---,0.00,VWS V14.01,2013-05-14 02:27:00,
2013-05-13 22:32:00,64.8,47.8,29.91,NE,45,0.0,0.0,54,0.00,,---,0.00,VWS V14.01,2013-05-14 02:32:00,
2013-05-13 22:37:00,64.4,47.9,29.91,NE,45,0.0,0.0,55,0.00,,---,0.00,VWS V14.01,2013-05-14 02:37:00,
2013-05-13 22:42:00,64.2,47.7,29.91,NE,45,0.0,0.0,55,0.00,,---,0.00,VWS V14.01,2013-05-14 02:42:00,
2013-05-13 22:47:00,64.0,48.0,29.91,NE,45,0.0,0.0,56,0.00,,---,0.00,VWS V14.01,2013-05-14 02:47:00,
2013-05-13 22:52:00,64.0,48.5,29.91,NE,45,0.0,0.0,57,0.00,,---,0.00,VWS V14.01,2013-05-14 02:52:00,
2013-05-13 22:57:00,63.7,48.6,29.91,NE,45,0.0,0.0,58,0.00,,---,0.00,VWS V14.01,2013-05-14 02:57:00,
2013-05-13 23:02:00,63.5,48.5,29.91,NE,45,0.0,0.0,58,0.00,,---,0.00,VWS V14.01,2013-05-14 03:02:00,
2013-05-13 23:07:00,63.3,48.8,29.91,WNW,292,2.2,2.5,59,0.00,,---,0.00,VWS V14.01,2013-05-14 03:07:00,
2013-05-13 23:12:00,63.1,48.6,29.91,West,270,0.0,0.0,59,0.00,,---,0.00,VWS V14.01,2013-05-14 03:12:00,
2013-05-13 23:17:00,63.0,48.9,29.91,North,0,2.7,2.7,60,0.00,,---,0.00,VWS V14.01,2013-05-14 03:17:00,
2013-05-13 23:22:00,63.1,49.0,29.91,NE,45,0.0,0.0,60,0.00,,---,0.00,VWS V14.01,2013-05-14 03:22:00,
2013-05-13 23:27:00,63.1,49.0,29.91,NNE,22,0.0,1.3,60,0.00,,---,0.00,VWS V14.01,2013-05-14 03:27:00,
2013-05-13 23:33:00,63.1,49.0,29.91,NNE,22,0.0,0.9,60,0.00,,---,0.00,VWS V14.01,2013-05-14 03:33:00,
2013-05-13 23:38:00,63.1,49.0,29.91,NNE,22,0.0,0.0,60,0.00,,---,0.00,VWS V14.01,2013-05-14 03:38:00,
2013-05-13 23:43:00,63.0,48.9,29.91,NW,315,0.0,1.3,60,0.00,,---,0.00,VWS V14.01,2013-05-14 03:43:00,
2013-05-13 23:48:00,63.0,48.9,29.91,WNW,292,0.0,0.0,60,0.00,,---,0.00,VWS V14.01,2013-05-14 03:48:00,
2013-05-13 23:53:00,62.8,48.7,29.91,WNW,292,0.0,0.0,60,0.00,,---,0.00,VWS V14.01,2013-05-14 03:53:00,
2013-05-13 23:58:00,62.4,48.8,29.91,WNW,292,0.0,0.0,61,0.00,,---,0.00,VWS V14.01,2013-05-14 03:58:00,